Maersk Lebu — VRJH7 — position and weather

sailwx.info

Track history (hours):
 
Tides and Currents Weather Stations Pressure Air Temp Water Temp Dewpoint Dewpoint Depression Visibility Wind Speed Wind Dir Waves Ship Positions

Maersk Lebu

Last reported at 2017-Oct-17 02:00 UTC. Time now 2017-Oct-17 06:20 UTC.
Position S 08°00' W 004°06'.

Length 300 m; draft 11.5 m.

Type: Cargo ship. MMSI: 477196800.

Wind from 130 at 14 knots

Barometer 1022.6 mb
Air temperature 23.0 ° C
Visibility: greater than 10.8 NM
Dewpoint 19.1 ° C
Water temperature 24.0 ° C

Date/timePositionNaut miles runAvg speedWind from/ knotsBaromVisibWave heightAir tempDewpointWater temp
2017-Oct-17 02:00S 08°00' W 004°06'30919.3 130 / 141022.610.8 23.019.124.0
2017-Oct-16 10:00S 03°48' W 007°06'15519.3 130 / 171016.510.8 25.018.828.0
2017-Oct-16 02:00S 01°42' W 008°36'22819.0 130 / 151020.410.8 24.019.425.0
2017-Oct-15 14:00N 01°24' W 010°48'7318.3 170 / 161017.510.8 27.025.628.0
2017-Oct-15 10:00N 02°24' W 011°30'14618.3 160 / 201014.510.8 28.018.729.0
2017-Oct-15 02:00N 04°24' W 012°54'30919.3 170 / 121019.510.8 27.023.428.0
2017-Oct-14 10:00N 08°36' W 015°54'15319.1 350 / 81012.910.8 29.524.528.0
2017-Oct-14 02:00N 10°48' W 017°12'44619.4 010 / 81019.310.8 29.024.830.0
2017-Oct-13 03:00N 18°12' W 017°54'10821.6 340 / 121019.5 5.4 26.023.128.0
2017-Oct-12 22:00N 20°00' W 017°54'30919.4 040 / 201014.1 5.4 22.015.322.0
2017-Oct-12 06:03N 24°49' W 015°53'220.0
2017-Oct-12 05:58N 24°50' W 015°53'1420.0
2017-Oct-12 05:15N 25°02' W 015°44'520.1
2017-Oct-12 05:00N 25°06' W 015°41'1019.7
2017-Oct-12 04:31N 25°14' W 015°36'1019.8
2017-Oct-12 04:00N 25°23' W 015°30'1020.5
2017-Oct-12 03:30N 25°32' W 015°24'3120.5
2017-Oct-12 02:00N 25°54' W 015°00'2122.1 020 / 121023.110.8 22.020.524.0
2017-Oct-12 01:04N 26°13' W 014°51'220.3
2017-Oct-12 00:57N 26°15' W 014°49'1020.4
2017-Oct-12 00:28N 26°23' W 014°43'920.8
2017-Oct-12 00:00N 26°30' W 014°36'1020.4
2017-Oct-11 23:30N 26°38' W 014°29'1020.2
2017-Oct-11 23:00N 26°46' W 014°22'1020.1
2017-Oct-11 22:30N 26°53' W 014°14'1119.9
2017-Oct-11 21:56N 27°02' W 014°06'819.7
2017-Oct-11 21:31N 27°09' W 014°00'1019.8
2017-Oct-11 21:00N 27°16' W 013°53'6388.3
2017-Oct-11 21:00N 27°12' W 013°48'1225.7 040 / 201018.6 5.4 22.015.324.0
2017-Oct-11 20:30N 27°24' W 013°47'1020.0
2017-Oct-11 20:00N 27°33' W 013°40'1020.1
2017-Oct-11 19:30N 27°41' W 013°33'1019.8
2017-Oct-11 19:00N 27°48' W 013°26'1020.0
2017-Oct-11 18:30N 27°56' W 013°19'1020.2
2017-Oct-11 18:00N 28°04' W 013°12'1020.2
2017-Oct-11 17:30N 28°12' W 013°05'1020.0
2017-Oct-11 17:00N 28°20' W 012°58'7418.4
2017-Oct-11 13:00N 29°18' W 012°06'23419.5 050 / 81025.1 5.4 24.021.023.0
2017-Oct-11 01:00N 32°30' W 009°30'4618.9 330 / 71023.5 2.2 22.020.519.0
2017-Oct-10 22:32N 33°07' W 008°57'119.3
2017-Oct-10 22:28N 33°08' W 008°56'1819.1
2017-Oct-10 21:31N 33°22' W 008°42'019.4
2017-Oct-10 21:31N 33°22' W 008°41'1019.4
2017-Oct-10 21:00N 33°29' W 008°33'1119.4
2017-Oct-10 20:26N 33°37' W 008°24'1125.8
2017-Oct-10 20:00N 33°42' W 008°12'5345.6 060 / 281017.6 5.4 21.014.222.0
2017-Oct-10 19:59N 33°44' W 008°17'2619.7
2017-Oct-10 18:39N 34°03' W 007°55'320.0
2017-Oct-10 18:31N 34°05' W 007°53'1019.8
2017-Oct-10 18:00N 34°12' W 007°45'1619.6
2017-Oct-10 17:10N 34°24' W 007°31'719.6
2017-Oct-10 16:47N 34°30' W 007°25'619.4
2017-Oct-10 16:30N 34°34' W 007°21'1019.5
2017-Oct-10 15:58N 34°41' W 007°12'4219.3
2017-Oct-10 13:49N 35°12' W 006°39'619.4
2017-Oct-10 13:30N 35°17' W 006°34'1019.5
2017-Oct-10 13:00N 35°24' W 006°26'1019.7
2017-Oct-10 12:30N 35°32' W 006°18'1019.9
2017-Oct-10 12:00N 35°39' W 006°10'1019.9
2017-Oct-10 11:31N 35°47' W 006°02'1019.1
2017-Oct-10 10:58N 35°54' W 005°53'1517.2
2017-Oct-10 10:07N 35°58' W 005°35'216.6
2017-Oct-10 10:00N 35°58' W 005°33'815.1
2017-Oct-10 09:31N 36°01' W 005°25'83 2.4
2017-Oct-08 23:06N 36°06' W 007°07'220.6
2017-Oct-08 23:00N 36°07' W 007°10'1320.4
2017-Oct-08 22:23N 36°09' W 007°25'820.5
2017-Oct-08 22:00N 36°11' W 007°34'1120.6
2017-Oct-08 21:29N 36°13' W 007°47'1120.7
2017-Oct-08 20:57N 36°16' W 008°01'920.7
2017-Oct-08 20:30N 36°18' W 008°12'1120.5
2017-Oct-08 20:00N 36°21' W 008°24'1220.6
2017-Oct-08 19:25N 36°24' W 008°38'820.6
2017-Oct-08 19:01N 36°27' W 008°49'1020.8
2017-Oct-08 18:30N 36°30' W 009°01'1020.6
2017-Oct-08 18:00N 36°33' W 009°13'1020.0
2017-Oct-08 17:31N 36°38' W 009°24'1120.9
2017-Oct-08 17:00N 36°46' W 009°32'1220.3
2017-Oct-08 16:26N 36°57' W 009°37'920.6
2017-Oct-08 16:00N 37°06' W 009°39'1021.1
2017-Oct-08 15:30N 37°16' W 009°42'1121.2
2017-Oct-08 15:01N 37°26' W 009°45'1020.9
2017-Oct-08 14:30N 37°37' W 009°48'1121.2
2017-Oct-08 14:00N 37°47' W 009°51'1121.4
2017-Oct-08 13:31N 37°57' W 009°54'1121.5
2017-Oct-08 13:01N 38°08' W 009°57'1121.0
2017-Oct-08 12:30N 38°18' W 009°59'1121.1
2017-Oct-08 12:00N 38°28' W 010°02'1121.1
2017-Oct-08 11:30N 38°39' W 010°05'1121.4
2017-Oct-08 11:01N 38°49' W 010°07'1121.5
2017-Oct-08 10:31N 38°60' W 010°08'1122.1
2017-Oct-08 10:00N 39°11' W 010°10'1121.7
2017-Oct-08 09:31N 39°22' W 010°09'1121.6
2017-Oct-08 09:00N 39°33' W 010°09'1121.3
2017-Oct-08 08:30N 39°43' W 010°09'1121.5
2017-Oct-08 08:00N 39°54' W 010°08'1121.6
2017-Oct-08 07:30N 40°05' W 010°08'1121.8
2017-Oct-08 07:01N 40°16' W 010°08'1122.0
2017-Oct-08 06:31N 40°27' W 010°07'1121.9
2017-Oct-08 06:00N 40°38' W 010°07'1122.2
2017-Oct-08 05:30N 40°49' W 010°06'1122.3
2017-Oct-08 05:00N 40°60' W 010°07'1122.1
2017-Oct-08 04:30N 41°11' W 010°07'9822.1
2017-Oct-08 00:04N 42°49' W 010°06'122.7
2017-Oct-08 00:00N 42°51' W 010°06'2121.7
2017-Oct-07 23:02N 43°12' W 010°06'121.8
2017-Oct-07 23:00N 43°12' W 010°06'1421.5
2017-Oct-07 22:21N 43°25' W 009°59'822.0
2017-Oct-07 22:00N 43°32' W 009°54'1322.5
2017-Oct-07 21:26N 43°44' W 009°46'1022.5
2017-Oct-07 21:00N 43°52' W 009°40'1121.8
2017-Oct-07 20:29N 44°02' W 009°33'1521.9
2017-Oct-07 19:46N 44°16' W 009°22'1021.6
2017-Oct-07 19:19N 44°24' W 009°15'922.0
2017-Oct-07 18:54N 44°33' W 009°10'922.0
2017-Oct-07 18:30N 44°41' W 009°04'11221.7
2017-Oct-07 13:21N 46°20' W 007°51'921.3
2017-Oct-07 12:55N 46°28' W 007°44'4221.4
2017-Oct-07 10:58N 47°04' W 007°14'3321.6
2017-Oct-07 09:27N 47°33' W 006°51'1223.3
2017-Oct-07 08:55N 47°44' W 006°42'1022.9
2017-Oct-07 08:30N 47°52' W 006°37'1122.6
2017-Oct-07 08:00N 48°02' W 006°29'1222.4
2017-Oct-07 07:29N 48°13' W 006°20'1021.8
2017-Oct-07 07:00N 48°22' W 006°13'1121.3
2017-Oct-07 06:30N 48°31' W 006°05'1020.8
2017-Oct-07 06:00N 48°40' W 005°58'1020.1
2017-Oct-07 05:31N 48°49' W 005°51'918.7
2017-Oct-07 05:01N 48°56' W 005°41'918.1
2017-Oct-07 04:31N 49°01' W 005°29'816.2
2017-Oct-07 04:01N 49°05' W 005°19'815.7
2017-Oct-07 03:31N 49°09' W 005°08'917.5
2017-Oct-07 03:00N 49°13' W 004°57'1019.9
2017-Oct-07 02:31N 49°18' W 004°44'1020.6
2017-Oct-07 02:01N 49°24' W 004°30'  
Track history (hours):
 
Tides and Currents Weather Stations Pressure Air Temp Water Temp Dewpoint Dewpoint Depression Visibility Wind Speed Wind Dir Waves Ship Positions

Maersk Lebu

Last reported at 2017-Oct-17 02:00 UTC. Time now 2017-Oct-17 06:20 UTC.
Position S 08°00' W 004°06'.

Length 300 m; draft 11.5 m.

Type: Cargo ship. MMSI: 477196800.

Wind from 130 at 14 knots

Barometer 1022.6 mb
Air temperature 23.0 ° C
Visibility: greater than 10.8 NM
Dewpoint 19.1 ° C
Water temperature 24.0 ° C

Date/timePositionNaut miles runAvg speedWind from/ knotsBaromVisibWave heightAir tempDewpointWater temp
2017-Oct-17 02:00S 08°00' W 004°06'30919.3 130 / 141022.610.8 23.019.124.0
2017-Oct-16 10:00S 03°48' W 007°06'15519.3 130 / 171016.510.8 25.018.828.0
2017-Oct-16 02:00S 01°42' W 008°36'22819.0 130 / 151020.410.8 24.019.425.0
2017-Oct-15 14:00N 01°24' W 010°48'7318.3 170 / 161017.510.8 27.025.628.0
2017-Oct-15 10:00N 02°24' W 011°30'14618.3 160 / 201014.510.8 28.018.729.0
2017-Oct-15 02:00N 04°24' W 012°54'30919.3 170 / 121019.510.8 27.023.428.0
2017-Oct-14 10:00N 08°36' W 015°54'15319.1 350 / 81012.910.8 29.524.528.0
2017-Oct-14 02:00N 10°48' W 017°12'44619.4 010 / 81019.310.8 29.024.830.0
2017-Oct-13 03:00N 18°12' W 017°54'10821.6 340 / 121019.5 5.4 26.023.128.0
2017-Oct-12 22:00N 20°00' W 017°54'30919.4 040 / 201014.1 5.4 22.015.322.0
2017-Oct-12 06:03N 24°49' W 015°53'220.0
2017-Oct-12 05:58N 24°50' W 015°53'1420.0
2017-Oct-12 05:15N 25°02' W 015°44'520.1
2017-Oct-12 05:00N 25°06' W 015°41'1019.7
2017-Oct-12 04:31N 25°14' W 015°36'1019.8
2017-Oct-12 04:00N 25°23' W 015°30'1020.5
2017-Oct-12 03:30N 25°32' W 015°24'3120.5
2017-Oct-12 02:00N 25°54' W 015°00'2122.1 020 / 121023.110.8 22.020.524.0
2017-Oct-12 01:04N 26°13' W 014°51'220.3
2017-Oct-12 00:57N 26°15' W 014°49'1020.4
2017-Oct-12 00:28N 26°23' W 014°43'920.8
2017-Oct-12 00:00N 26°30' W 014°36'1020.4
2017-Oct-11 23:30N 26°38' W 014°29'1020.2
2017-Oct-11 23:00N 26°46' W 014°22'1020.1
2017-Oct-11 22:30N 26°53' W 014°14'1119.9
2017-Oct-11 21:56N 27°02' W 014°06'819.7
2017-Oct-11 21:31N 27°09' W 014°00'1019.8
2017-Oct-11 21:00N 27°16' W 013°53'6388.3
2017-Oct-11 21:00N 27°12' W 013°48'1225.7 040 / 201018.6 5.4 22.015.324.0
2017-Oct-11 20:30N 27°24' W 013°47'1020.0
2017-Oct-11 20:00N 27°33' W 013°40'1020.1
2017-Oct-11 19:30N 27°41' W 013°33'1019.8
2017-Oct-11 19:00N 27°48' W 013°26'1020.0
2017-Oct-11 18:30N 27°56' W 013°19'1020.2
2017-Oct-11 18:00N 28°04' W 013°12'1020.2
2017-Oct-11 17:30N 28°12' W 013°05'1020.0
2017-Oct-11 17:00N 28°20' W 012°58'7418.4
2017-Oct-11 13:00N 29°18' W 012°06'23419.5 050 / 81025.1 5.4 24.021.023.0
2017-Oct-11 01:00N 32°30' W 009°30'4618.9 330 / 71023.5 2.2 22.020.519.0
2017-Oct-10 22:32N 33°07' W 008°57'119.3
2017-Oct-10 22:28N 33°08' W 008°56'1819.1
2017-Oct-10 21:31N 33°22' W 008°42'019.4
2017-Oct-10 21:31N 33°22' W 008°41'1019.4
2017-Oct-10 21:00N 33°29' W 008°33'1119.4
2017-Oct-10 20:26N 33°37' W 008°24'1125.8
2017-Oct-10 20:00N 33°42' W 008°12'5345.6 060 / 281017.6 5.4 21.014.222.0
2017-Oct-10 19:59N 33°44' W 008°17'2619.7
2017-Oct-10 18:39N 34°03' W 007°55'320.0
2017-Oct-10 18:31N 34°05' W 007°53'1019.8
2017-Oct-10 18:00N 34°12' W 007°45'1619.6
2017-Oct-10 17:10N 34°24' W 007°31'719.6
2017-Oct-10 16:47N 34°30' W 007°25'619.4
2017-Oct-10 16:30N 34°34' W 007°21'1019.5
2017-Oct-10 15:58N 34°41' W 007°12'4219.3
2017-Oct-10 13:49N 35°12' W 006°39'619.4
2017-Oct-10 13:30N 35°17' W 006°34'1019.5
2017-Oct-10 13:00N 35°24' W 006°26'1019.7
2017-Oct-10 12:30N 35°32' W 006°18'1019.9
2017-Oct-10 12:00N 35°39' W 006°10'1019.9
2017-Oct-10 11:31N 35°47' W 006°02'1019.1
2017-Oct-10 10:58N 35°54' W 005°53'1517.2
2017-Oct-10 10:07N 35°58' W 005°35'216.6
2017-Oct-10 10:00N 35°58' W 005°33'815.1
2017-Oct-10 09:31N 36°01' W 005°25'83 2.4
2017-Oct-08 23:06N 36°06' W 007°07'220.6
2017-Oct-08 23:00N 36°07' W 007°10'1320.4
2017-Oct-08 22:23N 36°09' W 007°25'820.5
2017-Oct-08 22:00N 36°11' W 007°34'1120.6
2017-Oct-08 21:29N 36°13' W 007°47'1120.7
2017-Oct-08 20:57N 36°16' W 008°01'920.7
2017-Oct-08 20:30N 36°18' W 008°12'1120.5
2017-Oct-08 20:00N 36°21' W 008°24'1220.6
2017-Oct-08 19:25N 36°24' W 008°38'820.6
2017-Oct-08 19:01N 36°27' W 008°49'1020.8
2017-Oct-08 18:30N 36°30' W 009°01'1020.6
2017-Oct-08 18:00N 36°33' W 009°13'1020.0
2017-Oct-08 17:31N 36°38' W 009°24'1120.9
2017-Oct-08 17:00N 36°46' W 009°32'1220.3
2017-Oct-08 16:26N 36°57' W 009°37'920.6
2017-Oct-08 16:00N 37°06' W 009°39'1021.1
2017-Oct-08 15:30N 37°16' W 009°42'1121.2
2017-Oct-08 15:01N 37°26' W 009°45'1020.9
2017-Oct-08 14:30N 37°37' W 009°48'1121.2
2017-Oct-08 14:00N 37°47' W 009°51'1121.4
2017-Oct-08 13:31N 37°57' W 009°54'1121.5
2017-Oct-08 13:01N 38°08' W 009°57'1121.0
2017-Oct-08 12:30N 38°18' W 009°59'1121.1
2017-Oct-08 12:00N 38°28' W 010°02'1121.1
2017-Oct-08 11:30N 38°39' W 010°05'1121.4
2017-Oct-08 11:01N 38°49' W 010°07'1121.5
2017-Oct-08 10:31N 38°60' W 010°08'1122.1
2017-Oct-08 10:00N 39°11' W 010°10'1121.7
2017-Oct-08 09:31N 39°22' W 010°09'1121.6
2017-Oct-08 09:00N 39°33' W 010°09'1121.3
2017-Oct-08 08:30N 39°43' W 010°09'1121.5
2017-Oct-08 08:00N 39°54' W 010°08'1121.6
2017-Oct-08 07:30N 40°05' W 010°08'1121.8
2017-Oct-08 07:01N 40°16' W 010°08'1122.0
2017-Oct-08 06:31N 40°27' W 010°07'1121.9
2017-Oct-08 06:00N 40°38' W 010°07'1122.2
2017-Oct-08 05:30N 40°49' W 010°06'1122.3
2017-Oct-08 05:00N 40°60' W 010°07'1122.1
2017-Oct-08 04:30N 41°11' W 010°07'9822.1
2017-Oct-08 00:04N 42°49' W 010°06'122.7
2017-Oct-08 00:00N 42°51' W 010°06'2121.7
2017-Oct-07 23:02N 43°12' W 010°06'121.8
2017-Oct-07 23:00N 43°12' W 010°06'1421.5
2017-Oct-07 22:21N 43°25' W 009°59'822.0
2017-Oct-07 22:00N 43°32' W 009°54'1322.5
2017-Oct-07 21:26N 43°44' W 009°46'1022.5
2017-Oct-07 21:00N 43°52' W 009°40'1121.8
2017-Oct-07 20:29N 44°02' W 009°33'1521.9
2017-Oct-07 19:46N 44°16' W 009°22'1021.6
2017-Oct-07 19:19N 44°24' W 009°15'922.0
2017-Oct-07 18:54N 44°33' W 009°10'922.0
2017-Oct-07 18:30N 44°41' W 009°04'11221.7
2017-Oct-07 13:21N 46°20' W 007°51'921.3
2017-Oct-07 12:55N 46°28' W 007°44'4221.4
2017-Oct-07 10:58N 47°04' W 007°14'3321.6
2017-Oct-07 09:27N 47°33' W 006°51'1223.3
2017-Oct-07 08:55N 47°44' W 006°42'1022.9
2017-Oct-07 08:30N 47°52' W 006°37'1122.6
2017-Oct-07 08:00N 48°02' W 006°29'1222.4
2017-Oct-07 07:29N 48°13' W 006°20'1021.8
2017-Oct-07 07:00N 48°22' W 006°13'1121.3
2017-Oct-07 06:30N 48°31' W 006°05'1020.8
2017-Oct-07 06:00N 48°40' W 005°58'1020.1
2017-Oct-07 05:31N 48°49' W 005°51'918.7
2017-Oct-07 05:01N 48°56' W 005°41'918.1
2017-Oct-07 04:31N 49°01' W 005°29'816.2
2017-Oct-07 04:01N 49°05' W 005°19'815.7
2017-Oct-07 03:31N 49°09' W 005°08'917.5
2017-Oct-07 03:00N 49°13' W 004°57'1019.9
2017-Oct-07 02:31N 49°18' W 004°44'1020.6
2017-Oct-07 02:01N 49°24' W 004°30'  

Dump ship's entire track history